createdAt,value
2018-08-13T00:01:48.444Z,0.00
2018-08-13T00:02:48.384Z,0.00
2018-08-13T00:04:41.169Z,0.00
2018-08-13T00:05:41.096Z,0.00
2018-08-13T00:07:33.878Z,0.00
2018-08-13T00:08:33.802Z,0.00
2018-08-13T00:10:26.600Z,0.00
2018-08-13T00:11:26.548Z,0.00
2018-08-13T00:13:19.337Z,0.00
2018-08-13T00:14:19.271Z,0.00
2018-08-13T00:16:12.019Z,0.00
2018-08-13T00:17:11.962Z,0.00
2018-08-13T00:19:04.840Z,0.00
2018-08-13T00:20:04.670Z,0.00
2018-08-13T00:21:57.459Z,0.00
2018-08-13T00:22:57.400Z,0.00
2018-08-13T00:24:50.194Z,0.00
2018-08-13T00:25:50.116Z,0.00
2018-08-13T00:27:42.919Z,0.00
2018-08-13T00:28:42.819Z,0.00
2018-08-13T00:30:35.609Z,0.00
2018-08-13T00:31:35.543Z,0.00
2018-08-13T00:33:28.343Z,0.00
2018-08-13T00:34:28.258Z,0.00
2018-08-13T00:36:21.023Z,0.00
2018-08-13T00:37:20.996Z,0.00
2018-08-13T00:39:13.767Z,0.00
2018-08-13T00:40:13.677Z,0.00
2018-08-13T00:42:06.458Z,0.00
2018-08-13T00:43:06.392Z,0.00
2018-08-13T00:44:59.188Z,0.00
2018-08-13T00:45:59.159Z,0.00
2018-08-13T00:47:51.895Z,0.00
2018-08-13T00:48:51.842Z,0.00
2018-08-13T00:50:44.648Z,0.00
2018-08-13T00:51:44.550Z,0.00
2018-08-13T00:53:37.353Z,0.00
2018-08-13T00:54:37.282Z,0.00
2018-08-13T00:56:30.091Z,0.00
2018-08-13T00:57:30.041Z,0.00
2018-08-13T00:59:22.830Z,0.00
2018-08-13T01:00:22.749Z,0.00
2018-08-13T01:02:15.527Z,0.00
2018-08-13T01:03:15.466Z,0.00
2018-08-13T01:05:08.261Z,0.00
2018-08-13T01:06:08.185Z,0.00
2018-08-13T01:08:00.980Z,0.00
2018-08-13T01:09:00.885Z,0.00
2018-08-13T01:10:53.678Z,0.00
2018-08-13T01:11:53.617Z,0.00
2018-08-13T01:13:46.438Z,0.00
2018-08-13T01:14:46.361Z,0.00
2018-08-13T01:16:39.125Z,0.00
2018-08-13T01:17:39.063Z,0.00
2018-08-13T01:19:31.853Z,0.00
2018-08-13T01:20:31.786Z,0.00
2018-08-13T01:22:24.559Z,0.00
2018-08-13T01:23:24.490Z,0.00
2018-08-13T01:25:17.304Z,0.00
2018-08-13T01:26:17.218Z,0.00
2018-08-13T01:28:09.987Z,0.00
2018-08-13T01:29:09.919Z,0.00
2018-08-13T01:31:02.728Z,0.00
2018-08-13T01:32:02.662Z,0.00
2018-08-13T01:33:55.477Z,0.00
2018-08-13T01:34:55.395Z,0.00
2018-08-13T01:36:48.150Z,0.00
2018-08-13T01:37:48.094Z,0.00
2018-08-13T01:39:40.876Z,0.00
2018-08-13T01:40:40.797Z,0.00
2018-08-13T01:42:33.612Z,0.00
2018-08-13T01:43:33.544Z,0.00
2018-08-13T01:45:26.334Z,0.00
2018-08-13T01:46:26.260Z,0.00
2018-08-13T01:48:19.046Z,0.00
2018-08-13T01:49:18.967Z,0.00
2018-08-13T01:51:11.763Z,0.00
2018-08-13T01:52:11.683Z,0.00
2018-08-13T01:54:04.466Z,0.00
2018-08-13T01:55:04.401Z,0.00
2018-08-13T01:56:57.174Z,0.00
2018-08-13T01:57:57.117Z,0.00
2018-08-13T01:59:49.901Z,0.00
2018-08-13T02:00:49.815Z,0.00
2018-08-13T02:02:42.588Z,0.00
2018-08-13T02:03:42.524Z,0.00
2018-08-13T02:05:35.311Z,0.00
2018-08-13T02:06:35.241Z,0.00
2018-08-13T02:08:28.010Z,0.00
2018-08-13T02:09:27.932Z,0.00
2018-08-13T02:11:20.732Z,0.00
2018-08-13T02:12:20.654Z,0.00
2018-08-13T02:14:13.447Z,0.00
2018-08-13T02:15:13.363Z,0.00
2018-08-13T02:17:06.137Z,0.00
2018-08-13T02:18:06.082Z,0.00
2018-08-13T02:19:58.848Z,0.00
2018-08-13T02:20:58.773Z,0.00
2018-08-13T02:22:51.540Z,0.00
2018-08-13T02:23:51.472Z,0.00
2018-08-13T02:25:44.256Z,0.00
2018-08-13T02:26:44.182Z,0.00
2018-08-13T02:28:36.969Z,0.00
2018-08-13T02:29:36.909Z,0.00
2018-08-13T02:31:29.695Z,0.00
2018-08-13T02:32:29.618Z,0.00
2018-08-13T02:34:22.399Z,0.00
2018-08-13T02:35:22.334Z,0.00
2018-08-13T02:37:15.095Z,0.00
2018-08-13T02:38:15.042Z,0.00
2018-08-13T02:40:07.901Z,0.00
2018-08-13T02:41:07.810Z,0.00
2018-08-13T02:43:00.586Z,0.00
2018-08-13T02:44:00.511Z,0.00
2018-08-13T02:45:53.306Z,0.00
2018-08-13T02:46:53.226Z,0.00
2018-08-13T02:48:46.013Z,0.00
2018-08-13T02:49:45.952Z,0.00
2018-08-13T02:51:38.756Z,0.00
2018-08-13T02:52:38.673Z,0.00
2018-08-13T02:54:31.479Z,0.00
2018-08-13T02:55:31.401Z,0.00
2018-08-13T02:57:24.184Z,0.00
2018-08-13T02:58:24.117Z,0.00
2018-08-13T03:00:16.899Z,0.00
2018-08-13T03:01:16.822Z,0.00
2018-08-13T03:03:09.605Z,0.00
2018-08-13T03:04:09.539Z,0.00
2018-08-13T03:06:02.326Z,0.00
2018-08-13T03:07:02.255Z,0.00
2018-08-13T03:08:55.027Z,0.00
2018-08-13T03:09:54.956Z,0.00
2018-08-13T03:11:47.750Z,0.00
2018-08-13T03:12:47.676Z,0.00
2018-08-13T03:14:40.478Z,0.00
2018-08-13T03:15:40.379Z,0.00
2018-08-13T03:17:33.159Z,0.00
2018-08-13T03:18:33.084Z,4.00
2018-08-13T03:20:25.918Z,0.00
2018-08-13T03:21:25.795Z,4.00
2018-08-13T03:23:18.577Z,0.00
2018-08-13T03:24:18.513Z,4.00
2018-08-13T03:26:11.323Z,4.00
2018-08-13T03:27:11.228Z,8.00
2018-08-13T03:29:04.014Z,4.00
2018-08-13T03:30:03.949Z,8.00
2018-08-13T03:31:56.749Z,8.00
2018-08-13T03:32:56.654Z,12.00
2018-08-13T03:34:49.443Z,12.00
2018-08-13T03:35:49.364Z,16.00
2018-08-13T03:37:42.150Z,20.00
2018-08-13T03:38:42.094Z,20.00
2018-08-13T03:40:34.866Z,28.00
2018-08-13T03:41:34.786Z,24.00
2018-08-13T03:43:27.565Z,32.00
2018-08-13T03:44:27.501Z,32.00
2018-08-13T03:46:20.275Z,40.00
2018-08-13T03:47:20.193Z,44.00
2018-08-13T03:49:12.963Z,52.00
2018-08-13T03:50:12.974Z,52.00
2018-08-13T03:52:05.676Z,60.00
2018-08-13T03:53:05.600Z,64.00
2018-08-13T03:54:58.384Z,76.00
2018-08-13T03:55:58.311Z,80.00
2018-08-13T03:57:51.087Z,88.00
2018-08-13T03:58:51.020Z,96.00
2018-08-13T04:00:43.786Z,104.00
2018-08-13T04:01:43.726Z,108.00
2018-08-13T04:03:36.486Z,124.00
2018-08-13T04:04:36.422Z,128.00
2018-08-13T04:06:29.230Z,144.00
2018-08-13T04:07:29.137Z,152.00
2018-08-13T04:09:21.913Z,168.00
2018-08-13T04:10:21.855Z,180.00
2018-08-13T04:12:14.712Z,192.00
2018-08-13T04:13:14.585Z,196.00
2018-08-13T04:15:07.369Z,212.00
2018-08-13T04:16:07.296Z,216.00
2018-08-13T04:18:00.089Z,228.00
2018-08-13T04:19:00.045Z,232.00
2018-08-13T04:20:52.846Z,244.00
2018-08-13T04:21:52.740Z,256.00
2018-08-13T04:23:45.516Z,272.00
2018-08-13T04:24:45.457Z,280.00
2018-08-13T04:26:38.239Z,292.00
2018-08-13T04:27:38.175Z,300.00
2018-08-13T04:29:30.957Z,308.00
2018-08-13T04:30:30.887Z,316.00
2018-08-13T04:32:23.693Z,332.00
2018-08-13T04:33:23.604Z,336.00
2018-08-13T04:35:16.415Z,352.00
2018-08-13T04:36:16.312Z,356.00
2018-08-13T04:38:09.120Z,368.00
2018-08-13T04:39:09.058Z,380.00
2018-08-13T04:41:01.868Z,396.00
2018-08-13T04:42:01.776Z,404.00
2018-08-13T04:43:54.582Z,420.00
2018-08-13T04:44:54.500Z,428.00
2018-08-13T04:46:47.289Z,444.00
2018-08-13T04:47:47.233Z,452.00
2018-08-13T04:49:40.043Z,468.00
2018-08-13T04:50:39.946Z,480.00
2018-08-13T04:52:32.721Z,496.00
2018-08-13T04:53:32.646Z,512.00
2018-08-13T04:55:25.436Z,528.00
2018-08-13T04:56:25.367Z,536.00
2018-08-13T04:58:18.162Z,544.00
2018-08-13T04:59:18.086Z,552.00
2018-08-13T05:01:10.871Z,556.00
2018-08-13T05:02:10.795Z,560.00
2018-08-13T05:04:03.585Z,564.00
2018-08-13T05:05:03.531Z,568.00
2018-08-13T05:06:56.297Z,564.00
2018-08-13T05:07:56.225Z,572.00
2018-08-13T05:09:49.020Z,584.00
2018-08-13T05:10:48.952Z,596.00
2018-08-13T05:12:41.729Z,624.00
2018-08-13T05:13:41.652Z,636.00
2018-08-13T05:15:34.431Z,656.00
2018-08-13T05:16:34.362Z,664.00
2018-08-13T05:18:27.198Z,680.00
2018-08-13T05:19:27.104Z,692.00
2018-08-13T05:21:19.996Z,716.00
2018-08-13T05:22:19.804Z,728.00
2018-08-13T05:24:12.601Z,760.00
2018-08-13T05:25:12.529Z,804.00
2018-08-13T05:27:05.308Z,896.00
2018-08-13T05:28:05.219Z,948.00
2018-08-13T05:29:58.066Z,1020.00
2018-08-13T05:30:57.998Z,1044.00
2018-08-13T05:32:50.717Z,1080.00
2018-08-13T05:33:50.642Z,1084.00
2018-08-13T05:35:43.475Z,1100.00
2018-08-13T05:36:43.410Z,1096.00
2018-08-13T05:38:36.193Z,1124.00
2018-08-13T05:39:36.108Z,1248.00
2018-08-13T05:41:28.886Z,2204.00
2018-08-13T05:42:28.808Z,3632.00
2018-08-13T05:44:21.629Z,3704.00
2018-08-13T05:45:21.558Z,4012.00
2018-08-13T05:47:14.659Z,4916.00
2018-08-13T05:48:14.423Z,6092.00
2018-08-13T05:50:07.190Z,5704.00
2018-08-13T05:51:07.106Z,5816.00
2018-08-13T05:52:59.924Z,6932.00
2018-08-13T05:53:59.821Z,7216.00
2018-08-13T05:55:52.626Z,7232.00
2018-08-13T05:56:52.544Z,7208.00
2018-08-13T05:58:45.319Z,6012.00
2018-08-13T05:59:45.278Z,6476.00
2018-08-13T06:01:38.181Z,6800.00
2018-08-13T06:02:38.106Z,5584.00
2018-08-13T06:04:30.878Z,7040.00
2018-08-13T06:05:30.813Z,8360.00
2018-08-13T06:07:23.616Z,8008.00
2018-08-13T06:08:23.534Z,7004.00
2018-08-13T06:10:16.346Z,6948.00
2018-08-13T06:11:16.339Z,6528.00
2018-08-13T06:13:09.067Z,6304.00
2018-08-13T06:14:08.993Z,6316.00
2018-08-13T06:16:01.859Z,4792.00
2018-08-13T06:17:01.796Z,6300.00
2018-08-13T06:18:54.667Z,5236.00
2018-08-13T06:19:54.593Z,5144.00
2018-08-13T06:21:47.406Z,7212.00
2018-08-13T06:22:47.338Z,8984.00
2018-08-13T06:24:40.136Z,7880.00
2018-08-13T06:25:40.086Z,8112.00
2018-08-13T06:27:32.894Z,9644.00
2018-08-13T06:28:32.823Z,9600.00
2018-08-13T06:30:25.618Z,10576.00
2018-08-13T06:31:25.556Z,11028.00
2018-08-13T06:33:18.380Z,11920.00
2018-08-13T06:34:18.324Z,12704.00
2018-08-13T06:36:11.110Z,9584.00
2018-08-13T06:37:11.071Z,9932.00
2018-08-13T06:39:03.938Z,10536.00
2018-08-13T06:40:03.862Z,11076.00
2018-08-13T06:41:56.673Z,12928.00
2018-08-13T06:42:56.610Z,11776.00
2018-08-13T06:44:49.402Z,12992.00
2018-08-13T06:45:49.347Z,13568.00
2018-08-13T06:47:42.157Z,12384.00
2018-08-13T06:48:42.093Z,13760.00
2018-08-13T06:50:34.911Z,15072.00
2018-08-13T06:51:34.840Z,13408.00
2018-08-13T06:53:27.640Z,9956.00
2018-08-13T06:54:27.574Z,7872.00
2018-08-13T06:56:20.473Z,7080.00
2018-08-13T06:57:20.361Z,7308.00
2018-08-13T06:59:13.352Z,7836.00
2018-08-13T07:00:13.268Z,7964.00
2018-08-13T07:02:06.100Z,8136.00
2018-08-13T07:03:06.025Z,8128.00
2018-08-13T07:04:58.821Z,9164.00
2018-08-13T07:05:58.808Z,8480.00
2018-08-13T07:07:51.593Z,8324.00
2018-08-13T07:08:51.530Z,7912.00
2018-08-13T07:10:44.335Z,7104.00
2018-08-13T07:11:44.286Z,7032.00
2018-08-13T07:13:37.119Z,5720.00
2018-08-13T07:14:37.055Z,6864.00
2018-08-13T07:16:29.842Z,6540.00
2018-08-13T07:17:29.797Z,6700.00
2018-08-13T07:19:22.604Z,7684.00
2018-08-13T07:20:22.535Z,8268.00
2018-08-13T07:22:15.514Z,8292.00
2018-08-13T07:23:15.403Z,8200.00
2018-08-13T07:25:08.153Z,7828.00
2018-08-13T07:26:08.101Z,7096.00
2018-08-13T07:28:00.966Z,6096.00
2018-08-13T07:29:00.876Z,6112.00
2018-08-13T07:30:53.706Z,5964.00
2018-08-13T07:31:53.661Z,5872.00
2018-08-13T07:33:46.544Z,6140.00
2018-08-13T07:34:46.410Z,6212.00
2018-08-13T07:36:39.226Z,6336.00
2018-08-13T07:37:39.186Z,6300.00
2018-08-13T07:39:32.049Z,6360.00
2018-08-13T07:40:31.935Z,6896.00
2018-08-13T07:42:24.742Z,6836.00
2018-08-13T07:43:24.676Z,6776.00
2018-08-13T07:45:17.471Z,6336.00
2018-08-13T07:46:17.427Z,6292.00
2018-08-13T07:48:10.265Z,6328.00
2018-08-13T07:49:10.207Z,6340.00
2018-08-13T07:51:03.001Z,6092.00
2018-08-13T07:52:02.958Z,6152.00
2018-08-13T07:53:55.842Z,6224.00
2018-08-13T07:54:55.722Z,6364.00
2018-08-13T07:56:48.538Z,6684.00
2018-08-13T07:57:48.492Z,6952.00
2018-08-13T07:59:41.294Z,7432.00
2018-08-13T08:00:41.233Z,7632.00
2018-08-13T08:02:34.103Z,8204.00
2018-08-13T08:03:34.041Z,8740.00
2018-08-13T08:05:26.878Z,13888.00
2018-08-13T08:06:26.818Z,23232.00
2018-08-13T08:08:19.692Z,31520.00
2018-08-13T08:09:19.752Z,33728.00
2018-08-13T08:11:12.455Z,34528.00
2018-08-13T08:12:12.397Z,34400.00
2018-08-13T08:14:05.230Z,36256.00
2018-08-13T08:15:05.167Z,36960.00
2018-08-13T08:16:58.003Z,37152.00
2018-08-13T08:17:57.933Z,36800.00
2018-08-13T08:19:50.762Z,39936.00
2018-08-13T08:20:50.708Z,40288.00
2018-08-13T08:22:43.517Z,37536.00
2018-08-13T08:23:43.447Z,36608.00
2018-08-13T08:25:36.253Z,36352.00
2018-08-13T08:26:36.192Z,38560.00
2018-08-13T08:28:29.016Z,41312.00
2018-08-13T08:29:29.026Z,39328.00
2018-08-13T08:31:21.773Z,39232.00
2018-08-13T08:32:21.723Z,35552.00
2018-08-13T08:34:14.563Z,35936.00
2018-08-13T08:35:14.502Z,31360.00
2018-08-13T08:37:07.337Z,21536.00
2018-08-13T08:38:07.259Z,18528.00
2018-08-13T08:40:00.065Z,12316.00
2018-08-13T08:41:00.094Z,8868.00
2018-08-13T08:42:52.828Z,34848.00
2018-08-13T08:43:52.763Z,29344.00
2018-08-13T08:45:45.572Z,37440.00
2018-08-13T08:46:45.525Z,37856.00
2018-08-13T08:48:38.361Z,28544.00
2018-08-13T08:49:38.298Z,39424.00
2018-08-13T08:51:31.139Z,22592.00
2018-08-13T08:52:31.099Z,17632.00
2018-08-13T08:54:23.888Z,13728.00
2018-08-13T08:55:23.846Z,8920.00
2018-08-13T08:57:16.646Z,9228.00
2018-08-13T08:58:16.594Z,10336.00
2018-08-13T09:00:09.417Z,17376.00
2018-08-13T09:01:09.356Z,19136.00
2018-08-13T09:03:02.234Z,16224.00
2018-08-13T09:04:02.122Z,12488.00
2018-08-13T09:05:54.962Z,25216.00
2018-08-13T09:06:54.877Z,26368.00
2018-08-13T09:08:47.695Z,24224.00
2018-08-13T09:09:47.667Z,29216.00
2018-08-13T09:11:40.429Z,40224.00
2018-08-13T09:12:40.384Z,40192.00
2018-08-13T09:14:33.209Z,40352.00
2018-08-13T09:15:33.139Z,42016.00
2018-08-13T09:17:25.948Z,40768.00
2018-08-13T09:18:25.880Z,41216.00
2018-08-13T09:20:18.722Z,43104.00
2018-08-13T09:21:18.628Z,43328.00
2018-08-13T09:23:11.437Z,45856.00
2018-08-13T09:24:11.376Z,45312.00
2018-08-13T09:26:04.721Z,19552.00
2018-08-13T09:27:04.670Z,17184.00
2018-08-13T09:28:57.497Z,8336.00
2018-08-13T09:29:57.483Z,5332.00
2018-08-13T09:31:50.233Z,4716.00
2018-08-13T09:32:50.192Z,4732.00
2018-08-13T09:34:43.318Z,4996.00
2018-08-13T09:35:43.247Z,5256.00
2018-08-13T09:37:36.058Z,5540.00
2018-08-13T09:38:36.004Z,8180.00
2018-08-13T09:40:28.824Z,23360.00
2018-08-13T09:41:28.776Z,38848.00
2018-08-13T09:43:21.594Z,8348.00
2018-08-13T09:44:21.526Z,5572.00
2018-08-13T09:46:14.360Z,5388.00
2018-08-13T09:47:14.273Z,5216.00
2018-08-13T09:49:07.133Z,5340.00
2018-08-13T09:50:07.115Z,5480.00
2018-08-13T09:51:59.849Z,25280.00
2018-08-13T09:52:59.796Z,38592.00
2018-08-13T09:54:52.640Z,19776.00
2018-08-13T09:55:52.572Z,6720.00
2018-08-13T09:57:45.395Z,8040.00
2018-08-13T09:58:45.347Z,21088.00
2018-08-13T10:00:38.194Z,13016.00
2018-08-13T10:01:38.107Z,5644.00
2018-08-13T10:03:30.919Z,4904.00
2018-08-13T10:04:30.892Z,5968.00
2018-08-13T10:06:24.119Z,5068.00
2018-08-13T10:07:23.683Z,5016.00
2018-08-13T10:09:16.506Z,5124.00
2018-08-13T10:10:16.419Z,4788.00
2018-08-13T10:12:09.274Z,4408.00
2018-08-13T10:13:09.206Z,4920.00
2018-08-13T10:15:02.008Z,5320.00
2018-08-13T10:16:01.942Z,14112.00
2018-08-13T10:17:54.821Z,5900.00
2018-08-13T10:18:54.719Z,4764.00
2018-08-13T10:20:47.587Z,4516.00
2018-08-13T10:21:47.495Z,4612.00
2018-08-13T10:23:40.316Z,9296.00
2018-08-13T10:24:40.241Z,5264.00
2018-08-13T10:26:33.064Z,7752.00
2018-08-13T10:27:32.993Z,14592.00
2018-08-13T10:29:25.793Z,16896.00
2018-08-13T10:30:25.733Z,19392.00
2018-08-13T10:32:18.577Z,13408.00
2018-08-13T10:33:18.515Z,5660.00
2018-08-13T10:35:11.408Z,20288.00
2018-08-13T10:36:11.302Z,22912.00
2018-08-13T10:38:04.226Z,5312.00
2018-08-13T10:39:04.160Z,9460.00
2018-08-13T10:40:57.041Z,27360.00
2018-08-13T10:41:56.998Z,17728.00
2018-08-13T10:43:49.856Z,4728.00
2018-08-13T10:44:49.820Z,3748.00
2018-08-13T10:46:43.896Z,4344.00
2018-08-13T10:47:43.636Z,5108.00
2018-08-13T10:49:36.460Z,19168.00
2018-08-13T10:50:36.480Z,22304.00
2018-08-13T10:52:29.311Z,11392.00
2018-08-13T10:53:29.254Z,19744.00
2018-08-13T10:55:22.366Z,10172.00
2018-08-13T10:56:22.291Z,6192.00
2018-08-13T10:58:15.242Z,4516.00
2018-08-13T10:59:15.205Z,4384.00
2018-08-13T11:01:08.115Z,4332.00
2018-08-13T11:02:07.979Z,4380.00
2018-08-13T11:04:00.875Z,4624.00
2018-08-13T11:05:00.902Z,3792.00
2018-08-13T11:06:53.928Z,3352.00
2018-08-13T11:07:53.811Z,5172.00
2018-08-13T11:09:46.629Z,7404.00
2018-08-13T11:10:46.565Z,14528.00
2018-08-13T11:12:39.412Z,2824.00
2018-08-13T11:13:39.328Z,2660.00
2018-08-13T11:15:32.212Z,2512.00
2018-08-13T11:16:32.136Z,2436.00
2018-08-13T11:18:24.971Z,2356.00
2018-08-13T11:19:24.908Z,2316.00
2018-08-13T11:21:17.808Z,2268.00
2018-08-13T11:22:17.767Z,2228.00
2018-08-13T11:24:10.584Z,2124.00
2018-08-13T11:25:10.569Z,2072.00
2018-08-13T11:27:03.340Z,2024.00
2018-08-13T11:28:03.274Z,2000.00
2018-08-13T11:29:56.417Z,1976.00
2018-08-13T11:30:56.206Z,2008.00
2018-08-13T11:32:49.261Z,1904.00
2018-08-13T11:33:49.175Z,1852.00
2018-08-13T11:35:42.082Z,1760.00
2018-08-13T11:36:42.019Z,1736.00
2018-08-13T11:38:34.905Z,1724.00
2018-08-13T11:39:34.843Z,1736.00
2018-08-13T11:41:27.950Z,4572.00
2018-08-13T11:42:27.624Z,3532.00
2018-08-13T11:44:20.574Z,1780.00
2018-08-13T11:45:20.451Z,1880.00
2018-08-13T11:47:13.307Z,1908.00
2018-08-13T11:48:13.235Z,1924.00
2018-08-13T11:50:06.064Z,1980.00
2018-08-13T11:51:06.055Z,1940.00
2018-08-13T11:52:58.950Z,1884.00
2018-08-13T11:53:58.906Z,1588.00
2018-08-13T11:55:51.765Z,1524.00
2018-08-13T11:56:51.692Z,1808.00
2018-08-13T11:58:44.537Z,2304.00
2018-08-13T11:59:44.508Z,2436.00
2018-08-13T12:01:37.371Z,2260.00
2018-08-13T12:02:37.257Z,2180.00
2018-08-13T12:04:30.171Z,2160.00
2018-08-13T12:05:30.100Z,2124.00
2018-08-13T12:07:22.964Z,1744.00
2018-08-13T12:08:22.926Z,1844.00
2018-08-13T12:10:15.713Z,1704.00
2018-08-13T12:11:15.698Z,1696.00
2018-08-13T12:13:08.410Z,1764.00
2018-08-13T12:14:08.466Z,1752.00
2018-08-13T12:16:01.238Z,1740.00
2018-08-13T12:17:01.081Z,1816.00
2018-08-13T12:18:53.959Z,1588.00
2018-08-13T12:19:53.924Z,1628.00
2018-08-13T12:21:46.768Z,1888.00
2018-08-13T12:22:46.719Z,2036.00
2018-08-13T12:24:39.464Z,2304.00
2018-08-13T12:25:39.367Z,2388.00
2018-08-13T12:27:32.212Z,2404.00
2018-08-13T12:28:32.121Z,2428.00
2018-08-13T12:30:24.974Z,2652.00
2018-08-13T12:31:24.923Z,2764.00
2018-08-13T12:33:17.738Z,2888.00
2018-08-13T12:34:17.671Z,2880.00
2018-08-13T12:36:10.481Z,2740.00
2018-08-13T12:37:10.433Z,2744.00
2018-08-13T12:39:03.242Z,2764.00
2018-08-13T12:40:03.161Z,2908.00
2018-08-13T12:41:55.975Z,2908.00
2018-08-13T12:42:55.911Z,2904.00
2018-08-13T12:44:48.703Z,3032.00
2018-08-13T12:45:48.650Z,3116.00
2018-08-13T12:47:41.623Z,3132.00
2018-08-13T12:48:41.420Z,3100.00
2018-08-13T12:50:34.245Z,3148.00
2018-08-13T12:51:34.185Z,3092.00
2018-08-13T12:53:27.002Z,3168.00
2018-08-13T12:54:26.938Z,3156.00
2018-08-13T12:56:19.787Z,3044.00
2018-08-13T12:57:19.761Z,2876.00
2018-08-13T12:59:12.591Z,2756.00
2018-08-13T13:00:12.582Z,2732.00
2018-08-13T13:02:05.340Z,2764.00
2018-08-13T13:03:05.280Z,2688.00
2018-08-13T13:04:58.214Z,2700.00
2018-08-13T13:05:58.175Z,2708.00
2018-08-13T13:07:50.970Z,2524.00
2018-08-13T13:08:50.912Z,2508.00
2018-08-13T13:10:43.748Z,2664.00
2018-08-13T13:11:43.627Z,2504.00
2018-08-13T13:13:36.569Z,2552.00
2018-08-13T13:14:36.455Z,2548.00
2018-08-13T13:16:29.256Z,2404.00
2018-08-13T13:17:29.150Z,2332.00
2018-08-13T13:19:22.077Z,2288.00
2018-08-13T13:20:21.976Z,2336.00
2018-08-13T13:22:14.813Z,2408.00
2018-08-13T13:23:14.739Z,2360.00
2018-08-13T13:25:07.554Z,2384.00
2018-08-13T13:26:07.497Z,2352.00
2018-08-13T13:28:00.295Z,2184.00
2018-08-13T13:29:00.235Z,2136.00
2018-08-13T13:30:53.012Z,2040.00
2018-08-13T13:31:52.957Z,2132.00
2018-08-13T13:33:45.776Z,2196.00
2018-08-13T13:34:45.849Z,2116.00
2018-08-13T13:36:38.565Z,1888.00
2018-08-13T13:37:38.514Z,1816.00
2018-08-13T13:39:31.338Z,1980.00
2018-08-13T13:40:31.330Z,1968.00
2018-08-13T13:42:24.137Z,1752.00
2018-08-13T13:43:24.324Z,1664.00
2018-08-13T13:45:16.828Z,1768.00
2018-08-13T13:46:16.823Z,1880.00
2018-08-13T13:48:09.584Z,1936.00
2018-08-13T13:49:09.503Z,1868.00
2018-08-13T13:51:02.326Z,1780.00
2018-08-13T13:52:02.322Z,1764.00
2018-08-13T13:53:55.061Z,1668.00
2018-08-13T13:54:55.000Z,1608.00
2018-08-13T13:56:47.820Z,1496.00
2018-08-13T13:57:47.753Z,1456.00
2018-08-13T13:59:40.606Z,1372.00
2018-08-13T14:00:40.502Z,1300.00
2018-08-13T14:02:33.302Z,1344.00
2018-08-13T14:03:33.223Z,1364.00
2018-08-13T14:05:26.035Z,1420.00
2018-08-13T14:06:26.038Z,1420.00
2018-08-13T14:08:18.835Z,1360.00
2018-08-13T14:09:18.769Z,1248.00
2018-08-13T14:11:11.568Z,1092.00
2018-08-13T14:12:11.502Z,1064.00
2018-08-13T14:14:04.326Z,1068.00
2018-08-13T14:15:04.254Z,1140.00
2018-08-13T14:16:57.063Z,1256.00
2018-08-13T14:17:56.997Z,1276.00
2018-08-13T14:19:49.843Z,1268.00
2018-08-13T14:20:49.717Z,1268.00
2018-08-13T14:22:42.565Z,1292.00
2018-08-13T14:23:42.499Z,1256.00
2018-08-13T14:25:35.375Z,1216.00
2018-08-13T14:26:35.316Z,1208.00
2018-08-13T14:28:28.125Z,1192.00
2018-08-13T14:29:28.046Z,1184.00
2018-08-13T14:31:20.847Z,1156.00
2018-08-13T14:32:20.783Z,1124.00
2018-08-13T14:34:14.105Z,1096.00
2018-08-13T14:35:13.988Z,1044.00
2018-08-13T14:37:06.981Z,1008.00
2018-08-13T14:38:06.901Z,1060.00
2018-08-13T14:39:59.788Z,1092.00
2018-08-13T14:40:59.635Z,1000.00
2018-08-13T14:42:52.426Z,880.00
2018-08-13T14:43:52.350Z,912.00
2018-08-13T14:45:45.132Z,1124.00
2018-08-13T14:46:45.081Z,1228.00
2018-08-13T14:48:37.870Z,1340.00
2018-08-13T14:49:37.797Z,1368.00
2018-08-13T14:51:30.634Z,1312.00
2018-08-13T14:52:30.549Z,1280.00
2018-08-13T14:54:23.398Z,1328.00
2018-08-13T14:55:23.330Z,1332.00
2018-08-13T14:57:16.137Z,1448.00
2018-08-13T14:58:16.223Z,1536.00
2018-08-13T15:00:08.893Z,1548.00
2018-08-13T15:01:08.829Z,1500.00
2018-08-13T15:03:01.628Z,1432.00
2018-08-13T15:04:01.569Z,1328.00
2018-08-13T15:05:54.356Z,1124.00
2018-08-13T15:06:54.345Z,1052.00
2018-08-13T15:08:47.097Z,996.00
2018-08-13T15:09:47.026Z,956.00
2018-08-13T15:11:39.828Z,1004.00
2018-08-13T15:12:39.757Z,1092.00
2018-08-13T15:14:32.546Z,1196.00
2018-08-13T15:15:32.480Z,1268.00
2018-08-13T15:17:25.265Z,1352.00
2018-08-13T15:18:25.211Z,1376.00
2018-08-13T15:20:18.061Z,1280.00
2018-08-13T15:21:17.988Z,1212.00
2018-08-13T15:23:10.795Z,1048.00
2018-08-13T15:24:10.728Z,1004.00
2018-08-13T15:26:03.548Z,1000.00
2018-08-13T15:27:03.555Z,976.00
2018-08-13T15:28:56.300Z,928.00
2018-08-13T15:29:56.298Z,896.00
2018-08-13T15:31:49.013Z,912.00
2018-08-13T15:32:48.980Z,880.00
2018-08-13T15:34:41.762Z,760.00
2018-08-13T15:35:41.764Z,716.00
2018-08-13T15:37:34.487Z,756.00
2018-08-13T15:38:34.428Z,784.00
2018-08-13T15:40:27.223Z,732.00
2018-08-13T15:41:27.153Z,672.00
2018-08-13T15:43:19.959Z,584.00
2018-08-13T15:44:19.899Z,536.00
2018-08-13T15:46:12.685Z,504.00
2018-08-13T15:47:12.630Z,492.00
2018-08-13T15:49:05.452Z,448.00
2018-08-13T15:50:05.371Z,428.00
2018-08-13T15:51:58.203Z,376.00
2018-08-13T15:52:58.102Z,356.00
2018-08-13T15:54:50.926Z,344.00
2018-08-13T15:55:50.835Z,348.00
2018-08-13T15:57:43.652Z,336.00
2018-08-13T15:58:43.590Z,340.00
2018-08-13T16:00:36.513Z,364.00
2018-08-13T16:01:36.456Z,380.00
2018-08-13T16:03:29.240Z,356.00
2018-08-13T16:04:29.172Z,364.00
2018-08-13T16:06:21.940Z,364.00
2018-08-13T16:07:21.880Z,392.00
2018-08-13T16:09:14.716Z,500.00
2018-08-13T16:10:14.647Z,516.00
2018-08-13T16:12:07.458Z,508.00
2018-08-13T16:13:07.410Z,496.00
2018-08-13T16:15:00.188Z,512.00
2018-08-13T16:16:00.129Z,528.00
2018-08-13T16:17:52.918Z,556.00
2018-08-13T16:18:52.866Z,552.00
2018-08-13T16:20:45.694Z,548.00
2018-08-13T16:21:45.597Z,564.00
2018-08-13T16:23:38.509Z,544.00
2018-08-13T16:24:38.364Z,512.00
2018-08-13T16:26:31.145Z,472.00
2018-08-13T16:27:31.075Z,464.00
2018-08-13T16:29:24.453Z,448.00
2018-08-13T16:30:23.808Z,436.00
2018-08-13T16:32:16.585Z,448.00
2018-08-13T16:33:16.525Z,460.00
2018-08-13T16:35:09.320Z,480.00
2018-08-13T16:36:09.253Z,484.00
2018-08-13T16:38:02.138Z,488.00
2018-08-13T16:39:02.099Z,484.00
2018-08-13T16:40:54.907Z,488.00
2018-08-13T16:41:54.824Z,500.00
2018-08-13T16:43:47.671Z,516.00
2018-08-13T16:44:47.586Z,516.00
2018-08-13T16:46:40.412Z,496.00
2018-08-13T16:47:40.357Z,480.00
2018-08-13T16:49:33.215Z,464.00
2018-08-13T16:53:18.267Z,456.00
2018-08-13T16:54:18.193Z,468.00
2018-08-13T16:56:11.060Z,488.00
2018-08-13T16:57:10.976Z,492.00
2018-08-13T16:59:03.727Z,492.00
2018-08-13T17:00:03.653Z,476.00
2018-08-13T17:01:56.490Z,444.00
2018-08-13T17:02:56.908Z,424.00
2018-08-13T17:04:49.280Z,388.00
2018-08-13T17:05:49.192Z,376.00
2018-08-13T17:07:42.167Z,368.00
2018-08-13T17:08:42.113Z,372.00
2018-08-13T17:10:34.904Z,376.00
2018-08-13T17:11:34.836Z,364.00
2018-08-13T17:13:27.677Z,364.00
2018-08-13T17:14:27.815Z,360.00
2018-08-13T17:16:20.412Z,352.00
2018-08-13T17:17:20.311Z,348.00
2018-08-13T17:19:13.225Z,368.00
2018-08-13T17:20:13.045Z,388.00
2018-08-13T17:22:06.092Z,408.00
2018-08-13T17:23:05.979Z,408.00
2018-08-13T17:24:58.848Z,396.00
2018-08-13T17:25:58.717Z,384.00
2018-08-13T17:27:51.555Z,368.00
2018-08-13T17:28:51.493Z,360.00
2018-08-13T17:30:44.319Z,352.00
2018-08-13T17:31:44.244Z,344.00
2018-08-13T17:33:37.046Z,324.00
2018-08-13T17:34:36.961Z,312.00
2018-08-13T17:36:29.812Z,292.00
2018-08-13T17:37:29.728Z,276.00
2018-08-13T17:39:22.540Z,260.00
2018-08-13T17:40:22.486Z,252.00
2018-08-13T17:42:15.274Z,244.00
2018-08-13T17:43:15.439Z,236.00
2018-08-13T17:45:08.026Z,228.00
2018-08-13T17:46:08.055Z,224.00
2018-08-13T17:48:00.826Z,224.00
2018-08-13T17:49:00.709Z,224.00
2018-08-13T17:50:53.570Z,240.00
2018-08-13T17:51:53.457Z,240.00